Time;durP1;ratioP1;P1;durP2;ratioP2;P2;SDS_P1;SDS_P2;PMS_P1;PMS_P2;Temp;Humidity;BMP_temperature;BMP_pressure;BME280_temperature;BME280_humidity;BME280_pressure;Samples;Min_cycle;Max_cycle;Signal;HPM_P1;HPM_P2
2022/03/25 00:01:37;;;;;;;25.70;15.48;;;10.50;50.40;;;;;;5030753;28;20041;-69
2022/03/25 00:04:03;;;;;;;23.20;13.52;;;10.50;50.60;;;;;;5038896;28;20034;-69
2022/03/25 00:06:29;;;;;;;22.75;14.93;;;10.40;50.70;;;;;;5027846;28;20061;-68
2022/03/25 00:08:55;;;;;;;24.65;15.10;;;10.40;50.70;;;;;;5039979;28;20037;-70
2022/03/25 00:11:20;;;;;;;26.33;16.15;;;10.30;50.70;;;;;;5040712;28;20116;-70
2022/03/25 00:13:46;;;;;;;23.05;13.82;;;10.30;50.80;;;;;;5034027;28;20022;-71
2022/03/25 00:16:12;;;;;;;26.95;16.10;;;10.20;50.90;;;;;;5033555;28;20032;-71
2022/03/25 00:18:38;;;;;;;28.73;17.73;;;10.20;50.90;;;;;;5033661;28;20364;-70
2022/03/25 00:21:03;;;;;;;29.38;17.92;;;10.20;51.00;;;;;;5037737;28;20036;-70
2022/03/25 00:23:29;;;;;;;29.60;17.55;;;10.10;51.00;;;;;;5032495;28;20407;-70
2022/03/25 00:25:56;;;;;;;24.02;14.85;;;10.10;51.10;;;;;;5027563;28;20043;-70
2022/03/25 00:28:22;;;;;;;24.85;15.30;;;10.10;51.10;;;;;;5040691;28;20044;-69
2022/03/25 00:30:49;;;;;;;28.98;16.98;;;10.00;51.20;;;;;;5036554;28;20098;-69
2022/03/25 00:33:15;;;;;;;22.30;14.70;;;10.00;51.30;;;;;;5030646;28;20475;-68
2022/03/25 00:35:41;;;;;;;25.27;14.82;;;10.00;51.30;;;;;;5030166;28;20527;-69
2022/03/25 00:38:07;;;;;;;25.75;16.10;;;10.00;51.30;;;;;;5030572;28;20029;-70
2022/03/25 00:40:33;;;;;;;28.58;16.25;;;10.00;51.40;;;;;;5037187;28;20598;-69
2022/03/25 00:42:59;;;;;;;26.02;17.13;;;10.00;51.60;;;;;;5037831;28;20030;-69
2022/03/25 00:45:25;;;;;;;26.88;16.90;;;9.90;51.60;;;;;;5037476;28;20498;-69
2022/03/25 00:47:50;;;;;;;29.88;17.67;;;9.90;51.80;;;;;;5039323;28;20036;-70
2022/03/25 00:50:16;;;;;;;30.00;19.25;;;9.80;52.00;;;;;;5033426;28;20032;-69
2022/03/25 00:52:42;;;;;;;27.38;17.55;;;9.80;52.30;;;;;;5044989;28;20104;-70
2022/03/25 00:55:08;;;;;;;29.52;18.42;;;9.80;52.40;;;;;;5041091;28;20112;-70
2022/03/25 00:57:34;;;;;;;30.27;18.88;;;9.70;52.50;;;;;;5038385;28;20104;-70
2022/03/25 01:00:00;;;;;;;29.08;18.15;;;9.70;52.50;;;;;;5034575;28;20115;-70
2022/03/25 01:02:25;;;;;;;28.35;17.95;;;9.70;52.60;;;;;;5029961;28;20475;-70
2022/03/25 01:04:51;;;;;;;28.42;17.90;;;9.60;52.60;;;;;;5037299;28;20372;-69
2022/03/25 01:07:17;;;;;;;29.40;18.63;;;9.60;52.70;;;;;;5036483;28;20032;-69
2022/03/25 01:09:43;;;;;;;35.67;21.33;;;9.60;52.90;;;;;;5041191;28;20036;-70
2022/03/25 01:12:09;;;;;;;31.60;19.48;;;9.50;53.30;;;;;;5035440;28;20029;-71
2022/03/25 01:14:35;;;;;;;32.55;20.75;;;9.50;53.50;;;;;;5026889;28;20053;-69
2022/03/25 01:17:02;;;;;;;32.72;20.67;;;9.40;53.60;;;;;;5027499;28;20091;-69
2022/03/25 01:19:27;;;;;;;32.65;20.65;;;9.40;53.80;;;;;;5023657;28;20080;-69
2022/03/25 01:21:54;;;;;;;29.98;19.10;;;9.40;53.90;;;;;;5038301;28;20029;-69
2022/03/25 01:24:20;;;;;;;29.67;18.75;;;9.30;54.00;;;;;;5037672;28;20068;-69
2022/03/25 01:26:46;;;;;;;29.73;20.00;;;9.30;54.20;;;;;;5030954;28;20034;-69
2022/03/25 01:29:12;;;;;;;30.52;19.58;;;9.20;54.20;;;;;;5035745;28;20039;-69
2022/03/25 01:31:38;;;;;;;30.33;19.88;;;9.20;54.30;;;;;;5032743;28;20029;-69
2022/03/25 01:34:04;;;;;;;31.73;19.83;;;9.20;54.40;;;;;;5028081;28;20028;-68
2022/03/25 01:36:30;;;;;;;32.50;20.77;;;9.20;54.60;;;;;;5032476;28;20010;-70
2022/03/25 01:38:56;;;;;;;31.13;20.33;;;9.10;54.80;;;;;;5032796;28;20025;-69
2022/03/25 01:41:21;;;;;;;31.38;19.48;;;9.10;54.90;;;;;;5039505;28;20022;-69
2022/03/25 01:43:55;;;;;;;29.05;19.08;;;9.10;55.00;;;;;;5038395;28;20542;-70
2022/03/25 01:46:21;;;;;;;27.65;17.88;;;9.10;55.00;;;;;;5024161;28;20435;-71
2022/03/25 01:48:48;;;;;;;29.80;18.80;;;9.10;54.90;;;;;;5032026;28;20029;-69
2022/03/25 01:51:25;;;;;;;29.27;18.33;;;9.20;55.10;;;;;;5034353;28;20086;-70
2022/03/25 01:53:50;;;;;;;27.35;17.63;;;9.20;55.10;;;;;;5041025;28;20014;-69
2022/03/25 01:56:22;;;;;;;27.80;18.10;;;9.10;54.90;;;;;;5036683;28;21522;-70
2022/03/25 01:58:48;;;;;;;29.77;18.60;;;9.20;55.00;;;;;;5032853;28;20455;-70
2022/03/25 02:01:14;;;;;;;30.30;19.90;;;9.20;55.00;;;;;;5034130;28;20030;-69
2022/03/25 02:03:39;;;;;;;32.92;20.70;;;9.20;55.10;;;;;;5024966;28;20026;-70
2022/03/25 02:06:06;;;;;;;28.90;19.55;;;9.20;55.10;;;;;;5032643;28;20033;-69
2022/03/25 02:08:32;;;;;;;28.02;18.38;;;9.20;55.10;;;;;;5034693;28;20022;-69
2022/03/25 02:10:58;;;;;;;29.40;18.95;;;9.20;55.10;;;;;;5028940;28;20487;-69
2022/03/25 02:13:24;;;;;;;29.75;18.30;;;9.20;55.10;;;;;;5033852;28;20104;-70
2022/03/25 02:15:51;;;;;;;30.85;19.75;;;9.10;55.10;;;;;;5037282;28;20021;-70
2022/03/25 02:18:20;;;;;;;27.75;18.60;;;9.10;55.30;;;;;;5053495;28;20379;-70
2022/03/25 02:20:48;;;;;;;27.52;18.65;;;9.10;55.40;;;;;;5038005;28;20021;-70
2022/03/25 02:23:15;;;;;;;29.02;18.40;;;9.00;55.50;;;;;;5033816;28;20440;-72
2022/03/25 02:25:42;;;;;;;28.15;17.55;;;8.90;55.60;;;;;;5037469;28;20025;-72
2022/03/25 02:28:08;;;;;;;29.17;18.08;;;8.80;55.60;;;;;;5040151;28;20024;-73
2022/03/25 02:30:37;;;;;;;26.05;16.77;;;8.80;55.70;;;;;;5032350;28;20026;-71
2022/03/25 02:33:04;;;;;;;27.25;17.77;;;8.70;55.80;;;;;;5038707;28;20025;-71
2022/03/25 02:35:41;;;;;;;26.58;17.20;;;8.70;55.90;;;;;;5033594;28;20496;-72
2022/03/25 02:38:08;;;;;;;27.83;17.55;;;8.60;56.00;;;;;;5032844;28;20068;-72
2022/03/25 02:40:34;;;;;;;28.52;19.13;;;8.60;56.10;;;;;;5033646;28;20036;-72
2022/03/25 02:42:59;;;;;;;29.70;19.52;;;8.60;56.30;;;;;;5040888;28;20056;-72
2022/03/25 02:45:25;;;;;;;31.63;19.80;;;8.50;56.40;;;;;;5040702;28;20029;-72
2022/03/25 02:47:51;;;;;;;34.75;21.25;;;8.50;56.60;;;;;;5044522;28;20032;-72
2022/03/25 02:50:16;;;;;;;33.83;21.63;;;8.50;56.80;;;;;;5035617;28;20029;-72
2022/03/25 02:52:42;;;;;;;38.22;23.23;;;8.40;57.00;;;;;;5045122;28;20082;-73
2022/03/25 02:55:08;;;;;;;35.28;23.30;;;8.40;57.30;;;;;;5036110;28;20017;-72
2022/03/25 02:57:35;;;;;;;33.65;22.30;;;8.40;57.40;;;;;;5031570;28;20025;-72
2022/03/25 03:00:03;;;;;;;38.25;23.65;;;8.40;58.10;;;;;;5031843;28;20506;-73
2022/03/25 03:02:29;;;;;;;34.47;22.98;;;8.40;57.60;;;;;;5046577;28;20020;-72
2022/03/25 03:04:55;;;;;;;37.58;24.73;;;8.40;57.70;;;;;;5036191;28;20052;-72
2022/03/25 03:07:21;;;;;;;38.92;25.65;;;8.40;57.80;;;;;;5042568;28;20063;-72
2022/03/25 03:09:46;;;;;;;40.92;26.23;;;8.40;58.10;;;;;;5033526;28;20088;-73
2022/03/25 03:12:13;;;;;;;38.17;24.80;;;8.40;58.40;;;;;;5037982;28;20021;-72
2022/03/25 03:14:39;;;;;;;42.83;27.77;;;8.30;58.60;;;;;;5054087;28;20044;-72
2022/03/25 03:17:04;;;;;;;41.00;26.00;;;8.30;58.90;;;;;;5046220;28;20479;-73
2022/03/25 03:19:31;;;;;;;38.92;25.65;;;8.20;59.00;;;;;;5035663;28;20029;-71
2022/03/25 03:21:57;;;;;;;36.40;24.25;;;8.20;59.10;;;;;;5039868;28;20594;-72
2022/03/25 03:24:23;;;;;;;40.35;25.40;;;8.10;59.30;;;;;;5038795;28;20022;-71
2022/03/25 03:26:48;;;;;;;39.97;25.67;;;8.10;59.50;;;;;;5044572;28;20499;-71
2022/03/25 03:29:14;;;;;;;43.75;28.55;;;8.10;59.70;;;;;;5033937;28;20033;-71
2022/03/25 03:31:39;;;;;;;45.50;30.00;;;8.00;60.10;;;;;;5039373;28;20029;-71
2022/03/25 03:34:05;;;;;;;44.38;28.52;;;8.00;60.70;;;;;;5039118;28;20078;-71
2022/03/25 03:36:30;;;;;;;44.10;29.48;;;7.90;60.80;;;;;;5037708;28;20029;-71
2022/03/25 03:38:56;;;;;;;41.60;28.13;;;7.90;61.20;;;;;;5051369;28;20017;-72
2022/03/25 03:41:21;;;;;;;47.80;31.13;;;7.80;61.40;;;;;;5042198;28;20076;-71
2022/03/25 03:43:47;;;;;;;47.97;30.23;;;7.80;61.70;;;;;;5042369;28;20096;-71
2022/03/25 03:46:12;;;;;;;49.63;31.65;;;7.70;61.80;;;;;;5046878;28;20030;-71
2022/03/25 03:48:38;;;;;;;55.95;34.80;;;7.70;62.30;;;;;;5049274;28;20036;-72
2022/03/25 03:51:04;;;;;;;55.22;36.03;;;7.60;62.80;;;;;;5050597;28;20018;-72
2022/03/25 03:53:29;;;;;;;50.55;31.13;;;7.60;63.20;;;;;;5034786;28;20025;-70
2022/03/25 03:55:55;;;;;;;44.83;30.05;;;7.50;63.20;;;;;;5040822;28;20107;-71
2022/03/25 03:58:22;;;;;;;43.80;28.55;;;7.50;63.20;;;;;;5034199;28;20027;-72
2022/03/25 04:00:49;;;;;;;44.92;29.00;;;7.50;63.30;;;;;;5030286;28;20034;-72
2022/03/25 04:03:14;;;;;;;46.13;29.60;;;7.50;63.40;;;;;;5029733;28;20018;-71
2022/03/25 04:05:40;;;;;;;43.50;27.63;;;7.40;63.40;;;;;;5034947;28;20017;-71
2022/03/25 04:08:07;;;;;;;44.88;29.58;;;7.40;63.50;;;;;;5036400;28;20026;-72
2022/03/25 04:10:33;;;;;;;43.85;28.13;;;7.40;63.60;;;;;;5041851;28;20029;-72
2022/03/25 04:12:59;;;;;;;44.60;29.30;;;7.40;63.70;;;;;;5039195;28;20029;-71
2022/03/25 04:15:24;;;;;;;47.10;30.35;;;7.40;63.70;;;;;;5046788;28;20025;-71
2022/03/25 04:17:50;;;;;;;45.20;28.65;;;7.40;63.70;;;;;;5047040;28;20653;-72
2022/03/25 04:20:16;;;;;;;44.75;29.30;;;7.40;63.70;;;;;;5037091;28;20045;-71
2022/03/25 04:22:43;;;;;;;45.83;30.00;;;7.40;64.00;;;;;;5034611;28;20021;-72
2022/03/25 04:25:09;;;;;;;48.53;31.67;;;7.40;64.00;;;;;;5038862;28;20036;-71
2022/03/25 04:28:05;;;;;;;50.60;32.97;;;7.40;64.20;;;;;;5038842;28;20025;-71
2022/03/25 04:30:33;;;;;;;52.33;32.67;;;7.40;64.60;;;;;;5034832;28;20041;-71
2022/03/25 04:33:02;;;;;;;54.78;36.13;;;7.40;64.80;;;;;;5040436;28;20057;-71
2022/03/25 04:35:28;;;;;;;50.10;31.00;;;7.40;65.10;;;;;;5033573;28;20022;-71
2022/03/25 04:37:54;;;;;;;50.45;32.58;;;7.40;64.90;;;;;;5032160;28;20092;-70
2022/03/25 04:40:22;;;;;;;52.65;34.42;;;7.40;65.00;;;;;;5030607;28;20064;-71
2022/03/25 04:42:48;;;;;;;46.35;29.63;;;7.30;65.20;;;;;;5035572;28;20025;-73
2022/03/25 04:45:15;;;;;;;43.58;28.77;;;7.40;65.30;;;;;;5041057;28;20020;-72
2022/03/25 04:47:41;;;;;;;43.40;28.33;;;7.30;65.40;;;;;;5029874;28;20022;-73
2022/03/25 04:50:07;;;;;;;47.45;31.15;;;7.30;65.30;;;;;;5035283;28;20106;-70
2022/03/25 04:52:33;;;;;;;46.70;29.48;;;7.30;65.30;;;;;;5033341;28;20025;-70
2022/03/25 04:54:58;;;;;;;53.60;34.30;;;7.30;65.30;;;;;;5031670;28;20439;-70
2022/03/25 04:57:25;;;;;;;50.60;32.65;;;7.30;65.60;;;;;;5040806;28;20094;-70
2022/03/25 04:59:50;;;;;;;46.92;29.60;;;7.30;65.90;;;;;;5039630;28;20025;-71
2022/03/25 05:02:16;;;;;;;56.78;35.67;;;7.20;66.20;;;;;;5038791;28;20626;-71
2022/03/25 05:04:41;;;;;;;52.60;32.50;;;7.20;66.30;;;;;;5033989;28;20044;-70
2022/03/25 05:07:12;;;;;;;48.58;29.85;;;7.20;66.40;;;;;;5035990;28;20029;-70
2022/03/25 05:09:38;;;;;;;48.28;29.55;;;7.20;66.40;;;;;;5034816;28;20099;-70
2022/03/25 05:12:04;;;;;;;41.80;27.20;;;7.20;66.30;;;;;;5036256;28;20029;-70
2022/03/25 05:14:30;;;;;;;41.50;26.48;;;7.20;66.20;;;;;;5037675;28;20026;-70
2022/03/25 05:16:55;;;;;;;49.35;31.45;;;7.20;66.20;;;;;;5031155;28;20035;-71
2022/03/25 05:19:21;;;;;;;45.58;29.35;;;7.20;66.30;;;;;;5037347;28;20024;-71
2022/03/25 05:21:47;;;;;;;49.78;31.05;;;7.20;66.40;;;;;;5033988;28;20068;-71
2022/03/25 05:24:13;;;;;;;44.50;28.95;;;7.10;66.40;;;;;;5033408;28;20029;-71
2022/03/25 05:26:38;;;;;;;52.90;34.38;;;7.10;66.40;;;;;;5038349;28;20029;-71
2022/03/25 05:29:05;;;;;;;48.33;31.40;;;7.00;66.90;;;;;;5035462;28;20093;-72
2022/03/25 05:31:31;;;;;;;47.85;31.10;;;7.10;67.00;;;;;;5041541;28;20057;-72
2022/03/25 05:33:56;;;;;;;61.08;37.53;;;7.00;66.90;;;;;;5036245;28;20368;-70
2022/03/25 05:36:22;;;;;;;53.58;33.28;;;7.00;67.20;;;;;;5032583;28;20040;-70
2022/03/25 05:38:48;;;;;;;54.78;33.38;;;7.00;67.30;;;;;;5033664;28;21253;-70
2022/03/25 05:41:14;;;;;;;51.50;32.28;;;7.00;67.40;;;;;;5035775;28;20033;-70
2022/03/25 05:43:40;;;;;;;53.08;33.83;;;6.90;67.40;;;;;;5029774;28;20021;-71
2022/03/25 05:46:05;;;;;;;53.30;34.72;;;6.90;67.60;;;;;;5032647;28;20475;-71
2022/03/25 05:48:31;;;;;;;54.63;35.17;;;6.80;67.70;;;;;;5033717;28;20039;-71
2022/03/25 05:50:57;;;;;;;57.15;35.80;;;6.90;68.10;;;;;;5036961;28;20079;-71
2022/03/25 05:53:22;;;;;;;52.50;33.03;;;6.80;68.10;;;;;;5037905;28;20032;-71
2022/03/25 05:55:48;;;;;;;48.47;32.00;;;6.80;68.10;;;;;;5048620;28;20106;-71
2022/03/25 05:58:13;;;;;;;52.08;33.78;;;6.90;68.00;;;;;;5037720;28;20030;-72
2022/03/25 06:00:39;;;;;;;47.28;30.15;;;6.90;68.00;;;;;;5043944;28;20053;-71
2022/03/25 06:03:05;;;;;;;52.45;33.58;;;6.90;68.10;;;;;;5043497;28;20025;-71
2022/03/25 06:05:31;;;;;;;48.25;31.83;;;6.90;68.30;;;;;;5043148;28;20025;-70
2022/03/25 06:07:56;;;;;;;51.38;32.33;;;7.10;68.50;;;;;;5036211;28;20626;-70
2022/03/25 06:10:22;;;;;;;49.85;32.28;;;7.20;68.40;;;;;;5047313;28;20026;-72
2022/03/25 06:12:47;;;;;;;52.08;32.67;;;7.60;67.90;;;;;;5034553;28;20029;-72
2022/03/25 06:15:13;;;;;;;48.45;30.27;;;8.30;66.30;;;;;;5042905;28;20024;-72
2022/03/25 06:17:49;;;;;;;47.72;29.83;;;9.30;64.10;;;;;;5038798;28;20024;-71
2022/03/25 06:20:18;;;;;;;46.97;30.15;;;10.00;61.70;;;;;;5038030;28;20364;-71
2022/03/25 06:22:44;;;;;;;49.95;31.85;;;10.00;61.20;;;;;;5047692;28;20028;-71
2022/03/25 06:25:11;;;;;;;46.03;30.58;;;9.60;61.10;;;;;;5042227;28;20029;-70
2022/03/25 06:27:48;;;;;;;39.90;26.48;;;9.30;61.80;;;;;;5049759;28;20029;-70
2022/03/25 06:30:14;;;;;;;52.30;33.40;;;9.10;62.50;;;;;;5032939;28;20025;-70
2022/03/25 06:32:40;;;;;;;47.17;31.45;;;9.00;63.00;;;;;;5044681;28;20028;-70
2022/03/25 06:35:07;;;;;;;50.60;33.65;;;8.90;63.30;;;;;;5032288;28;20025;-70
2022/03/25 06:37:33;;;;;;;53.45;33.90;;;8.90;63.80;;;;;;5046362;28;20653;-69
2022/03/25 06:39:58;;;;;;;57.08;36.88;;;8.90;63.90;;;;;;5034178;28;20030;-70
2022/03/25 06:42:24;;;;;;;54.00;35.60;;;8.80;64.00;;;;;;5033880;28;20033;-71
2022/03/25 06:44:49;;;;;;;46.58;31.60;;;8.70;64.20;;;;;;5042727;28;20064;-72
2022/03/25 06:47:15;;;;;;;52.17;34.00;;;8.70;64.20;;;;;;5041463;28;20017;-72
2022/03/25 06:49:41;;;;;;;44.38;30.05;;;8.70;64.90;;;;;;5040387;28;20081;-72
2022/03/25 06:52:07;;;;;;;50.38;33.38;;;8.70;64.30;;;;;;5036771;28;20036;-71
2022/03/25 06:54:33;;;;;;;54.45;34.00;;;8.70;64.30;;;;;;5043225;28;20079;-71
2022/03/25 06:56:59;;;;;;;47.50;31.75;;;8.70;64.40;;;;;;5034280;28;20029;-70
2022/03/25 06:59:25;;;;;;;54.13;34.67;;;8.70;64.40;;;;;;5033233;28;20454;-72
2022/03/25 07:01:51;;;;;;;49.45;33.22;;;8.70;64.40;;;;;;5034250;28;20060;-70
2022/03/25 07:04:16;;;;;;;45.50;30.00;;;8.70;64.50;;;;;;5038222;28;20025;-71
2022/03/25 07:06:47;;;;;;;52.35;33.83;;;8.80;64.40;;;;;;5036824;28;20021;-71
2022/03/25 07:09:13;;;;;;;52.45;33.83;;;8.80;64.40;;;;;;5028460;28;20549;-72
2022/03/25 07:11:38;;;;;;;54.40;35.40;;;8.90;64.70;;;;;;5034968;28;20021;-71
2022/03/25 07:14:04;;;;;;;51.95;33.60;;;9.00;64.90;;;;;;5031661;28;20075;-71
2022/03/25 07:16:30;;;;;;;51.13;33.97;;;9.10;64.60;;;;;;5034021;28;20018;-72
2022/03/25 07:18:56;;;;;;;47.10;31.02;;;9.20;64.60;;;;;;5038921;28;20415;-72
2022/03/25 07:21:21;;;;;;;45.92;31.23;;;9.30;64.20;;;;;;5030648;28;20116;-72
2022/03/25 07:23:47;;;;;;;50.85;34.47;;;9.30;64.00;;;;;;5040640;28;20029;-72
2022/03/25 07:26:12;;;;;;;47.83;32.15;;;9.40;64.10;;;;;;5034308;28;20021;-71
2022/03/25 07:28:38;;;;;;;48.90;32.03;;;9.40;63.90;;;;;;5027060;28;20021;-72
2022/03/25 07:31:05;;;;;;;57.08;36.63;;;9.50;63.90;;;;;;5031833;28;20029;-71
2022/03/25 07:33:30;;;;;;;49.22;32.72;;;9.60;63.90;;;;;;5032524;28;20395;-71
2022/03/25 07:35:56;;;;;;;48.72;31.42;;;9.60;63.70;;;;;;5030349;28;20064;-72
2022/03/25 07:38:22;;;;;;;46.33;29.55;;;9.80;63.50;;;;;;5035993;28;20109;-72
2022/03/25 07:40:47;;;;;;;47.60;31.27;;;9.90;63.20;;;;;;5031193;28;20045;-70
2022/03/25 07:43:13;;;;;;;43.58;29.38;;;10.00;63.00;;;;;;5029636;28;20013;-71
2022/03/25 07:45:39;;;;;;;44.45;30.40;;;10.10;62.70;;;;;;5027816;28;20412;-70
2022/03/25 07:48:05;;;;;;;45.85;30.63;;;10.20;62.30;;;;;;5024689;28;20038;-70
2022/03/25 07:50:31;;;;;;;50.92;33.45;;;10.30;62.10;;;;;;5030770;28;20049;-71
2022/03/25 07:52:56;;;;;;;45.22;30.45;;;10.30;61.70;;;;;;5029931;28;20032;-70
2022/03/25 07:55:22;;;;;;;43.72;29.55;;;10.40;61.40;;;;;;5028860;28;20021;-70
2022/03/25 07:57:49;;;;;;;47.78;32.72;;;10.50;61.10;;;;;;5031411;28;20020;-70
2022/03/25 08:00:15;;;;;;;50.97;33.85;;;10.60;61.00;;;;;;5030335;28;20028;-70
2022/03/25 08:02:42;;;;;;;50.10;34.47;;;10.60;60.80;;;;;;5031580;28;20022;-70
2022/03/25 08:05:12;;;;;;;47.95;32.60;;;10.70;60.50;;;;;;5044920;28;20026;-70
2022/03/25 08:07:42;;;;;;;52.70;35.53;;;10.70;60.20;;;;;;5028647;28;20061;-69
2022/03/25 08:10:08;;;;;;;48.40;33.40;;;10.80;60.10;;;;;;5024994;28;20034;-68
2022/03/25 08:12:35;;;;;;;43.25;29.83;;;10.80;59.70;;;;;;5027843;28;20033;-69
2022/03/25 08:15:00;;;;;;;40.22;26.73;;;10.90;59.50;;;;;;5029064;28;20044;-69
2022/03/25 08:17:26;;;;;;;38.13;26.38;;;11.00;59.40;;;;;;5025891;28;20053;-69
2022/03/25 08:19:52;;;;;;;47.55;32.45;;;11.20;59.20;;;;;;5032191;28;20032;-70
2022/03/25 08:22:18;;;;;;;39.13;27.13;;;11.20;58.80;;;;;;5026186;28;20026;-70
2022/03/25 08:30:12;;;;;;;50.00;34.65;;;11.60;58.20;;;;;;5035743;28;20068;-70
2022/03/25 08:32:37;;;;;;;49.03;33.67;;;11.70;57.90;;;;;;5032103;28;20021;-71
2022/03/25 08:35:03;;;;;;;44.38;31.23;;;11.90;57.90;;;;;;5030273;28;20056;-69
2022/03/25 08:37:29;;;;;;;39.55;27.50;;;11.90;57.50;;;;;;5025545;28;20395;-69
2022/03/25 08:39:54;;;;;;;42.78;29.63;;;12.00;57.30;;;;;;5032042;28;20049;-70
2022/03/25 08:42:20;;;;;;;38.15;27.10;;;12.10;57.10;;;;;;5031670;28;20102;-70
2022/03/25 08:44:45;;;;;;;39.50;28.58;;;12.10;56.90;;;;;;5035537;28;20033;-69
2022/03/25 08:47:11;;;;;;;46.85;33.38;;;12.10;56.60;;;;;;5030122;28;20416;-70
2022/03/25 08:49:36;;;;;;;45.25;31.60;;;12.20;56.40;;;;;;5033009;28;20392;-69
2022/03/25 08:52:02;;;;;;;37.88;26.65;;;12.30;56.30;;;;;;5039536;28;20029;-69
2022/03/25 08:54:27;;;;;;;44.88;30.85;;;12.30;56.00;;;;;;5050279;28;20503;-70
2022/03/25 08:56:53;;;;;;;47.45;31.40;;;12.50;55.90;;;;;;5033612;28;20108;-70
2022/03/25 08:59:19;;;;;;;50.67;32.92;;;12.50;55.20;;;;;;5034652;28;20082;-70
2022/03/25 09:01:45;;;;;;;56.30;37.13;;;12.50;54.70;;;;;;5035711;28;20055;-70
2022/03/25 09:04:10;;;;;;;46.80;30.67;;;12.50;54.30;;;;;;5035187;28;20071;-71
2022/03/25 09:06:36;;;;;;;44.50;31.42;;;12.60;54.50;;;;;;5036704;28;20108;-71
2022/03/25 09:09:02;;;;;;;41.63;29.05;;;12.60;54.00;;;;;;5034704;28;20446;-68
2022/03/25 09:11:27;;;;;;;38.88;26.70;;;12.60;53.80;;;;;;5037828;28;20039;-70
2022/03/25 09:13:54;;;;;;;42.33;28.50;;;12.70;53.70;;;;;;5044830;28;20037;-71
2022/03/25 09:16:19;;;;;;;40.67;27.85;;;12.70;53.40;;;;;;5038892;28;20048;-71
2022/03/25 09:18:45;;;;;;;41.95;28.50;;;12.80;53.20;;;;;;5031818;28;20052;-70
2022/03/25 09:21:11;;;;;;;39.40;26.92;;;12.80;53.00;;;;;;5030296;28;20372;-70
2022/03/25 09:23:36;;;;;;;38.88;26.80;;;12.80;52.50;;;;;;5035803;28;20025;-70
2022/03/25 09:26:02;;;;;;;40.13;26.33;;;12.90;52.30;;;;;;5038032;28;20534;-70
2022/03/25 09:28:28;;;;;;;37.35;25.30;;;13.00;52.10;;;;;;5029388;28;20029;-70
2022/03/25 09:30:55;;;;;;;37.55;24.92;;;13.10;51.70;;;;;;5030473;28;20022;-70
2022/03/25 09:33:20;;;;;;;46.70;31.42;;;13.20;51.40;;;;;;5028293;28;20014;-70
2022/03/25 09:35:46;;;;;;;39.38;26.95;;;13.20;51.00;;;;;;5024925;28;20032;-70
2022/03/25 09:38:12;;;;;;;43.90;28.00;;;13.30;51.10;;;;;;5024048;28;20041;-71
2022/03/25 09:40:42;;;;;;;40.40;27.75;;;13.40;51.00;;;;;;5027290;28;20029;-70
2022/03/25 09:43:07;;;;;;;42.17;27.83;;;13.50;50.60;;;;;;5026933;28;20025;-72
2022/03/25 09:45:35;;;;;;;44.72;30.40;;;13.50;50.30;;;;;;5021986;28;20037;-70
2022/03/25 09:48:01;;;;;;;42.13;26.70;;;13.60;49.50;;;;;;5025113;28;20108;-70
2022/03/25 09:50:28;;;;;;;35.42;23.35;;;13.60;49.30;;;;;;5036656;28;20028;-71
2022/03/25 09:52:54;;;;;;;40.78;27.15;;;13.60;49.40;;;;;;5032476;28;20021;-70
2022/03/25 09:55:20;;;;;;;39.20;28.05;;;13.70;49.20;;;;;;5033266;28;20029;-70
2022/03/25 09:57:46;;;;;;;39.05;26.45;;;13.80;49.30;;;;;;5032130;28;20025;-70
2022/03/25 10:00:16;;;;;;;36.17;24.65;;;13.80;49.10;;;;;;5031594;28;20027;-70
2022/03/25 10:02:42;;;;;;;36.25;24.85;;;13.90;49.20;;;;;;5033861;28;20029;-70
2022/03/25 10:05:19;;;;;;;42.85;27.42;;;14.00;49.20;;;;;;5036630;28;20131;-70
2022/03/25 10:07:47;;;;;;;35.15;23.35;;;14.00;49.10;;;;;;5026553;28;20057;-70
2022/03/25 10:10:21;;;;;;;45.92;31.42;;;14.20;49.20;;;;;;5035441;28;20786;-70
2022/03/25 10:12:48;;;;;;;44.00;29.23;;;14.20;48.80;;;;;;5029173;28;20571;-69
2022/03/25 10:15:23;;;;;;;42.75;28.98;;;14.20;49.00;;;;;;5023511;28;20036;-70
2022/03/25 10:17:52;;;;;;;42.55;29.25;;;14.40;49.10;;;;;;5028827;28;20026;-71
2022/03/25 10:20:22;;;;;;;43.10;26.98;;;14.40;48.90;;;;;;5025794;28;20025;-70
2022/03/25 10:23:07;;;;;;;36.78;25.85;;;14.50;48.80;;;;;;5028243;28;20033;-71
2022/03/25 10:25:38;;;;;;;48.20;32.40;;;14.60;48.80;;;;;;5028219;28;20104;-70
2022/03/25 10:28:16;;;;;;;40.70;27.38;;;14.70;48.10;;;;;;5030573;28;20033;-71
2022/03/25 10:30:41;;;;;;;39.95;26.13;;;14.70;48.80;;;;;;5045194;28;20051;-71
2022/03/25 10:33:12;;;;;;;44.05;29.20;;;14.80;48.30;;;;;;5028051;28;20032;-70
2022/03/25 10:35:58;;;;;;;57.80;33.83;;;14.80;47.80;;;;;;5031633;28;20022;-71
2022/03/25 10:38:24;;;;;;;45.30;30.77;;;14.80;47.70;;;;;;5048480;28;20017;-71
2022/03/25 10:40:55;;;;;;;36.33;25.35;;;14.80;47.70;;;;;;5034674;28;20057;-70
2022/03/25 10:43:22;;;;;;;38.65;25.17;;;14.90;47.90;;;;;;5031062;28;20491;-71
2022/03/25 10:45:48;;;;;;;40.35;28.30;;;15.00;47.90;;;;;;5030803;28;20627;-70
2022/03/25 10:48:24;;;;;;;36.03;24.00;;;15.10;47.10;;;;;;5031392;28;20030;-70
2022/03/25 10:51:10;;;;;;;35.38;22.95;;;15.10;47.30;;;;;;5021603;28;20022;-71
2022/03/25 10:53:38;;;;;;;31.83;21.20;;;15.20;47.30;;;;;;5031716;28;20013;-71
2022/03/25 10:56:06;;;;;;;32.08;20.98;;;15.30;47.20;;;;;;5027249;28;20049;-71
2022/03/25 10:58:34;;;;;;;28.92;20.08;;;15.30;47.10;;;;;;5024458;28;20016;-70
2022/03/25 11:01:00;;;;;;;28.50;19.00;;;15.40;46.90;;;;;;5025438;28;20040;-71
2022/03/25 11:03:26;;;;;;;29.90;19.75;;;15.40;46.70;;;;;;5022809;28;20392;-70
2022/03/25 11:05:53;;;;;;;45.63;30.85;;;15.60;47.40;;;;;;5033308;28;20033;-70
2022/03/25 11:08:18;;;;;;;35.15;25.00;;;15.60;46.20;;;;;;5042565;28;20025;-69
2022/03/25 11:10:44;;;;;;;36.35;24.52;;;15.60;46.40;;;;;;5037455;28;20017;-69
2022/03/25 11:13:09;;;;;;;40.97;28.67;;;15.60;46.50;;;;;;5030676;28;20049;-69
2022/03/25 11:15:37;;;;;;;29.40;20.67;;;15.70;46.60;;;;;;5036748;28;20414;-69
2022/03/25 11:18:03;;;;;;;40.25;27.77;;;15.80;46.70;;;;;;5034356;28;20048;-69
2022/03/25 11:20:29;;;;;;;32.67;21.95;;;15.90;46.20;;;;;;5037168;28;20034;-69
2022/03/25 11:23:15;;;;;;;29.17;20.25;;;16.00;46.40;;;;;;5046300;28;20021;-69
2022/03/25 11:25:50;;;;;;;30.63;22.02;;;16.10;46.40;;;;;;5036546;28;20025;-69
2022/03/25 11:28:19;;;;;;;35.15;24.42;;;16.20;46.10;;;;;;5030324;28;20018;-70
2022/03/25 11:30:55;;;;;;;30.48;20.50;;;16.20;45.40;;;;;;5035325;28;20084;-70
2022/03/25 11:33:21;;;;;;;31.00;21.80;;;16.20;45.60;;;;;;5034857;28;20071;-70
2022/03/25 11:35:47;;;;;;;41.22;27.55;;;16.20;45.30;;;;;;5033122;28;20026;-70
2022/03/25 11:38:13;;;;;;;29.35;20.88;;;16.20;45.60;;;;;;5032019;28;20021;-70
2022/03/25 11:40:49;;;;;;;37.25;25.98;;;16.40;45.80;;;;;;5032634;28;20380;-70
2022/03/25 11:43:21;;;;;;;34.78;23.92;;;16.40;45.60;;;;;;5038203;28;20114;-70
2022/03/25 11:45:59;;;;;;;31.13;21.35;;;16.50;45.60;;;;;;5040861;28;20096;-70
2022/03/25 11:48:24;;;;;;;31.77;22.33;;;16.60;45.60;;;;;;5037737;28;20037;-70
2022/03/25 11:50:50;;;;;;;31.40;22.65;;;16.70;45.40;;;;;;5032282;28;20091;-69
2022/03/25 11:53:16;;;;;;;35.15;25.77;;;16.80;45.30;;;;;;5044540;28;20017;-70
2022/03/25 11:55:53;;;;;;;32.25;21.02;;;17.00;45.00;;;;;;5031709;28;20037;-70
2022/03/25 11:58:19;;;;;;;28.60;19.38;;;17.10;44.80;;;;;;5031710;28;20029;-70
2022/03/25 12:00:48;;;;;;;32.17;22.42;;;17.40;44.60;;;;;;5029926;28;20033;-70
2022/03/25 12:03:15;;;;;;;37.80;25.92;;;17.50;43.90;;;;;;5029452;28;20383;-69
2022/03/25 12:06:08;;;;;;;36.35;25.15;;;17.50;43.10;;;;;;5038634;28;20071;-70
2022/03/25 12:08:37;;;;;;;;;;;17.60;43.30;;;;;;5023603;28;20048;-70
2022/03/25 12:11:07;;;;;;;35.78;23.50;;;17.60;43.20;;;;;;5033141;28;19964;-70
2022/03/25 12:13:54;;;;;;;37.58;26.25;;;17.70;43.20;;;;;;5035989;28;20025;-69
2022/03/25 12:16:44;;;;;;;34.47;23.67;;;17.70;42.70;;;;;;5034214;28;20522;-69
2022/03/25 12:19:28;;;;;;;35.47;23.73;;;17.70;42.90;;;;;;5030102;28;20025;-69
2022/03/25 12:22:04;;;;;;;33.22;23.17;;;17.80;43.10;;;;;;5026985;28;20022;-70
2022/03/25 12:24:34;;;;;;;33.42;22.63;;;18.00;43.70;;;;;;5028434;28;20120;-70
2022/03/25 12:27:05;;;;;;;35.75;24.00;;;18.10;42.70;;;;;;5036847;28;20049;-70
2022/03/25 12:29:39;;;;;;;33.30;23.48;;;18.10;42.20;;;;;;5043911;28;20032;-70
2022/03/25 12:32:07;;;;;;;30.83;22.10;;;18.10;42.10;;;;;;5032788;28;20021;-70
2022/03/25 12:34:49;;;;;;;33.63;24.67;;;18.20;42.10;;;;;;5027369;28;20017;-70
2022/03/25 12:37:26;;;;;;;29.98;19.67;;;18.20;41.80;;;;;;5030123;28;20017;-70
2022/03/25 12:39:52;;;;;;;32.10;21.92;;;18.20;42.00;;;;;;5032306;28;20033;-70